createdAt,value
2023-03-05T00:02:44.326Z,5.30
2023-03-05T00:11:10.441Z,5.20
2023-03-05T00:19:33.444Z,3.50
2023-03-05T00:27:56.436Z,3.60
2023-03-05T00:36:20.135Z,4.10
2023-03-05T00:44:43.221Z,3.50
2023-03-05T00:53:07.217Z,3.40
2023-03-05T01:01:30.327Z,3.90
2023-03-05T01:09:54.330Z,4.80
2023-03-05T01:18:20.076Z,5.50
2023-03-05T01:26:44.568Z,3.90
2023-03-05T01:35:08.217Z,3.00
2023-03-05T01:43:31.423Z,4.80
2023-03-05T01:52:12.033Z,3.00
2023-03-05T02:00:40.073Z,2.60
2023-03-05T02:09:03.787Z,2.60
2023-03-05T02:17:28.511Z,21.50
2023-03-05T02:25:52.585Z,5.00
2023-03-05T02:34:15.645Z,2.90
2023-03-05T02:42:39.303Z,3.80
2023-03-05T02:51:05.582Z,3.70
2023-03-05T02:59:29.283Z,4.60
2023-03-05T03:07:52.634Z,4.50
2023-03-05T03:16:16.397Z,3.70
2023-03-05T03:24:40.996Z,4.00
2023-03-05T03:33:04.785Z,39.70
2023-03-05T03:41:28.486Z,12.70
2023-03-05T03:49:55.267Z,3.40
2023-03-05T03:58:18.414Z,5.90
2023-03-05T04:06:41.563Z,4.90
2023-03-05T04:15:08.111Z,4.80
2023-03-05T04:23:33.145Z,5.90
2023-03-05T04:31:56.341Z,4.50
2023-03-05T04:40:19.566Z,3.80
2023-03-05T04:48:42.574Z,5.20
2023-03-05T04:57:06.845Z,6.10
2023-03-05T05:05:29.998Z,13.20
2023-03-05T05:13:53.438Z,6.90
2023-03-05T05:22:16.483Z,6.10
2023-03-05T05:30:39.579Z,6.00
2023-03-05T05:39:02.736Z,8.00
2023-03-05T05:47:26.069Z,7.80
2023-03-05T05:55:49.988Z,6.50
2023-03-05T06:04:13.071Z,6.30
2023-03-05T06:12:36.156Z,4.60
2023-03-05T06:21:02.548Z,6.30
2023-03-05T06:29:25.696Z,6.50
2023-03-05T06:37:49.334Z,6.70
2023-03-05T06:46:19.546Z,6.50
2023-03-05T06:54:42.673Z,6.50
2023-03-05T07:03:05.887Z,7.90
2023-03-05T07:11:30.060Z,5.90
2023-03-05T07:19:57.771Z,4.50
2023-03-05T07:28:20.866Z,5.20
2023-03-05T07:36:44.837Z,5.20
2023-03-05T07:45:09.368Z,4.00
2023-03-05T07:53:34.169Z,4.10
2023-03-05T08:01:58.125Z,3.50
2023-03-05T08:10:21.334Z,3.40
2023-03-05T08:18:50.305Z,3.30
2023-03-05T08:27:13.398Z,2.60
2023-03-05T08:35:36.548Z,4.60
2023-03-05T08:43:59.737Z,2.70
2023-03-05T08:52:23.794Z,3.50
2023-03-05T09:00:47.286Z,41.80
2023-03-05T09:09:11.085Z,5.40
2023-03-05T09:17:38.231Z,23.00
2023-03-05T09:26:02.555Z,47.00
2023-03-05T09:34:28.145Z,14.50
2023-03-05T09:43:03.878Z,5.70
2023-03-05T09:51:36.515Z,4.80
2023-03-05T10:00:09.903Z,3.60
2023-03-05T10:09:08.627Z,4.00
2023-03-05T10:17:47.022Z,4.30
2023-03-05T10:26:43.084Z,4.40
2023-03-05T10:35:24.757Z,6.20
2023-03-05T10:52:38.331Z,6.80
2023-03-05T11:01:22.239Z,8.50
2023-03-05T11:10:02.231Z,6.50
2023-03-05T11:18:25.413Z,10.70
2023-03-05T11:26:54.960Z,7.40
2023-03-05T11:35:35.942Z,6.90
2023-03-05T11:44:03.956Z,28.20
2023-03-05T11:52:33.864Z,12.10
2023-03-05T12:00:59.035Z,12.90
2023-03-05T12:09:43.516Z,7.00
2023-03-05T12:18:11.539Z,12.10
2023-03-05T12:26:53.416Z,7.20
2023-03-05T12:35:30.483Z,7.10
2023-03-05T12:44:06.877Z,7.00
2023-03-05T12:52:33.183Z,8.20
2023-03-05T13:01:12.070Z,6.40
2023-03-05T13:09:36.673Z,18.80
2023-03-05T13:18:08.668Z,13.20
2023-03-05T13:26:40.956Z,8.10
2023-03-05T13:35:12.813Z,13.10
2023-03-05T13:43:43.771Z,10.70
2023-03-05T13:52:39.881Z,16.60
2023-03-05T14:02:18.821Z,19.10
2023-03-05T14:18:49.221Z,19.80
2023-03-05T14:31:51.869Z,15.60
2023-03-05T14:40:14.974Z,26.00
2023-03-05T14:48:37.981Z,22.90
2023-03-05T14:57:01.033Z,15.70
2023-03-05T15:05:24.280Z,21.10
2023-03-05T15:13:50.095Z,32.70
2023-03-05T15:22:13.680Z,28.80
2023-03-05T15:30:40.439Z,29.30
2023-03-05T15:39:03.687Z,23.80
2023-03-05T15:47:26.873Z,11.30
2023-03-05T15:55:49.899Z,20.90
2023-03-05T16:04:17.750Z,28.80
2023-03-05T16:12:43.137Z,27.60
2023-03-05T16:21:07.163Z,16.10
2023-03-05T16:29:32.584Z,15.10
2023-03-05T16:37:55.941Z,15.80
2023-03-05T16:46:19.825Z,13.10
2023-03-05T16:54:43.326Z,9.70
2023-03-05T17:03:07.557Z,26.60
2023-03-05T17:11:31.288Z,26.20
2023-03-05T17:19:54.872Z,25.40
2023-03-05T17:28:18.496Z,41.80
2023-03-05T17:36:41.735Z,44.60
2023-03-05T17:45:07.633Z,42.70
2023-03-05T17:53:30.886Z,17.70
2023-03-05T18:01:54.353Z,23.20
2023-03-05T18:10:20.757Z,32.00
2023-03-05T18:18:44.787Z,50.30
2023-03-05T18:27:08.259Z,25.60
2023-03-05T18:35:33.653Z,23.80
2023-03-05T18:43:58.012Z,22.80
2023-03-05T18:52:21.727Z,55.80
2023-03-05T19:00:47.160Z,39.90
2023-03-05T19:19:24.706Z,21.70
2023-03-05T19:27:48.537Z,30.90
2023-03-05T19:36:13.350Z,31.30
2023-03-05T19:44:36.614Z,20.70
2023-03-05T19:52:59.680Z,25.90
2023-03-05T20:01:26.898Z,26.50
2023-03-05T20:09:53.390Z,21.00
2023-03-05T20:18:16.512Z,16.10
2023-03-05T20:26:42.740Z,18.70
2023-03-05T20:35:14.096Z,21.40
2023-03-05T20:43:42.661Z,33.10
2023-03-05T20:52:06.882Z,31.20
2023-03-05T21:00:30.378Z,26.00
2023-03-05T21:08:54.025Z,18.90
2023-03-05T21:17:18.145Z,20.40
2023-03-05T21:25:41.712Z,16.70
2023-03-05T21:34:04.955Z,22.60
2023-03-05T21:42:29.837Z,34.40
2023-03-05T21:50:55.325Z,33.90
2023-03-05T21:59:18.657Z,31.90
2023-03-05T22:07:42.937Z,37.30
2023-03-05T22:16:07.174Z,37.70
2023-03-05T22:24:30.265Z,22.10
2023-03-05T22:32:53.747Z,23.80
2023-03-05T22:41:21.708Z,31.00
2023-03-05T22:49:46.847Z,22.80
2023-03-05T22:58:10.656Z,23.50
2023-03-05T23:06:33.964Z,22.20
2023-03-05T23:15:01.083Z,20.20
2023-03-05T23:23:25.326Z,20.70
2023-03-05T23:31:49.024Z,18.80
2023-03-05T23:40:19.643Z,16.70
2023-03-05T23:48:42.805Z,17.80
2023-03-05T23:57:06.114Z,16.90
